sensor_id;sensor_type;location;lat;lon;timestamp;P1;durP1;ratioP1;P2;durP2;ratioP2
40471;SDS011;26174;42.908;23.800;2023-08-21T00:00:30;12.65;;;6.70;;
40471;SDS011;26174;42.908;23.800;2023-08-21T00:02:55;10.55;;;6.63;;
40471;SDS011;26174;42.908;23.800;2023-08-21T00:05:21;10.73;;;6.55;;
40471;SDS011;26174;42.908;23.800;2023-08-21T00:07:46;10.45;;;6.82;;
40471;SDS011;26174;42.908;23.800;2023-08-21T00:10:15;12.32;;;6.57;;
40471;SDS011;26174;42.908;23.800;2023-08-21T00:12:41;8.10;;;6.18;;
40471;SDS011;26174;42.908;23.800;2023-08-21T00:15:07;10.73;;;6.90;;
40471;SDS011;26174;42.908;23.800;2023-08-21T00:17:34;12.40;;;6.68;;
40471;SDS011;26174;42.908;23.800;2023-08-21T00:20:00;8.73;;;7.25;;
40471;SDS011;26174;42.908;23.800;2023-08-21T00:22:27;9.90;;;6.63;;
40471;SDS011;26174;42.908;23.800;2023-08-21T00:24:52;8.95;;;6.63;;
40471;SDS011;26174;42.908;23.800;2023-08-21T00:27:18;7.82;;;6.45;;
40471;SDS011;26174;42.908;23.800;2023-08-21T00:29:43;10.25;;;6.82;;
40471;SDS011;26174;42.908;23.800;2023-08-21T00:32:09;15.88;;;7.40;;
40471;SDS011;26174;42.908;23.800;2023-08-21T00:34:34;13.20;;;6.70;;
40471;SDS011;26174;42.908;23.800;2023-08-21T00:37:00;11.75;;;6.82;;
40471;SDS011;26174;42.908;23.800;2023-08-21T00:39:26;10.68;;;6.80;;
40471;SDS011;26174;42.908;23.800;2023-08-21T00:41:51;9.57;;;6.53;;
40471;SDS011;26174;42.908;23.800;2023-08-21T00:44:17;8.95;;;7.30;;
40471;SDS011;26174;42.908;23.800;2023-08-21T00:46:42;13.50;;;6.82;;
40471;SDS011;26174;42.908;23.800;2023-08-21T00:49:08;9.98;;;6.85;;
40471;SDS011;26174;42.908;23.800;2023-08-21T00:51:34;12.80;;;7.38;;
40471;SDS011;26174;42.908;23.800;2023-08-21T00:53:59;15.25;;;7.15;;
40471;SDS011;26174;42.908;23.800;2023-08-21T00:56:25;11.73;;;6.60;;
40471;SDS011;26174;42.908;23.800;2023-08-21T00:58:50;9.73;;;6.97;;
40471;SDS011;26174;42.908;23.800;2023-08-21T01:01:16;10.00;;;6.90;;
40471;SDS011;26174;42.908;23.800;2023-08-21T01:03:43;10.50;;;7.18;;
40471;SDS011;26174;42.908;23.800;2023-08-21T01:06:09;11.60;;;7.00;;
40471;SDS011;26174;42.908;23.800;2023-08-21T01:08:43;9.75;;;7.10;;
40471;SDS011;26174;42.908;23.800;2023-08-21T01:11:49;11.23;;;7.15;;
40471;SDS011;26174;42.908;23.800;2023-08-21T01:14:28;13.13;;;7.93;;
40471;SDS011;26174;42.908;23.800;2023-08-21T01:16:58;17.55;;;8.57;;
40471;SDS011;26174;42.908;23.800;2023-08-21T01:19:39;11.45;;;8.43;;
40471;SDS011;26174;42.908;23.800;2023-08-21T01:22:08;11.85;;;7.72;;
40471;SDS011;26174;42.908;23.800;2023-08-21T01:24:34;10.57;;;7.88;;
40471;SDS011;26174;42.908;23.800;2023-08-21T01:27:00;12.55;;;8.45;;
40471;SDS011;26174;42.908;23.800;2023-08-21T01:29:26;14.80;;;9.27;;
40471;SDS011;26174;42.908;23.800;2023-08-21T01:34:25;14.52;;;8.73;;
40471;SDS011;26174;42.908;23.800;2023-08-21T01:36:51;12.40;;;7.90;;
40471;SDS011;26174;42.908;23.800;2023-08-21T01:39:17;15.32;;;8.05;;
40471;SDS011;26174;42.908;23.800;2023-08-21T01:41:43;14.48;;;8.75;;
40471;SDS011;26174;42.908;23.800;2023-08-21T01:44:08;17.80;;;9.07;;
40471;SDS011;26174;42.908;23.800;2023-08-21T01:46:34;14.05;;;9.15;;
40471;SDS011;26174;42.908;23.800;2023-08-21T01:48:59;13.15;;;8.48;;
40471;SDS011;26174;42.908;23.800;2023-08-21T01:51:25;16.77;;;9.32;;
40471;SDS011;26174;42.908;23.800;2023-08-21T01:53:50;16.23;;;9.75;;
40471;SDS011;26174;42.908;23.800;2023-08-21T01:56:16;20.52;;;9.23;;
40471;SDS011;26174;42.908;23.800;2023-08-21T01:58:41;13.85;;;9.02;;
40471;SDS011;26174;42.908;23.800;2023-08-21T02:01:07;15.15;;;9.98;;
40471;SDS011;26174;42.908;23.800;2023-08-21T02:03:32;12.05;;;8.63;;
40471;SDS011;26174;42.908;23.800;2023-08-21T02:05:58;16.95;;;9.43;;
40471;SDS011;26174;42.908;23.800;2023-08-21T02:08:25;20.08;;;7.97;;
40471;SDS011;26174;42.908;23.800;2023-08-21T02:10:56;22.67;;;8.52;;
40471;SDS011;26174;42.908;23.800;2023-08-21T02:13:21;17.98;;;9.32;;
40471;SDS011;26174;42.908;23.800;2023-08-21T02:15:47;11.75;;;7.18;;
40471;SDS011;26174;42.908;23.800;2023-08-21T02:18:12;11.13;;;7.72;;
40471;SDS011;26174;42.908;23.800;2023-08-21T02:20:38;11.88;;;7.72;;
40471;SDS011;26174;42.908;23.800;2023-08-21T02:23:03;19.85;;;8.48;;
40471;SDS011;26174;42.908;23.800;2023-08-21T02:25:29;14.35;;;7.55;;
40471;SDS011;26174;42.908;23.800;2023-08-21T02:27:55;17.25;;;8.20;;
40471;SDS011;26174;42.908;23.800;2023-08-21T02:30:21;17.60;;;7.75;;
40471;SDS011;26174;42.908;23.800;2023-08-21T02:32:50;13.88;;;8.07;;
40471;SDS011;26174;42.908;23.800;2023-08-21T02:35:16;17.02;;;7.82;;
40471;SDS011;26174;42.908;23.800;2023-08-21T02:37:42;13.63;;;7.93;;
40471;SDS011;26174;42.908;23.800;2023-08-21T02:40:08;12.45;;;7.22;;
40471;SDS011;26174;42.908;23.800;2023-08-21T02:42:34;11.63;;;8.13;;
40471;SDS011;26174;42.908;23.800;2023-08-21T02:44:59;10.90;;;7.65;;
40471;SDS011;26174;42.908;23.800;2023-08-21T02:47:28;23.90;;;7.97;;
40471;SDS011;26174;42.908;23.800;2023-08-21T02:49:54;21.90;;;8.77;;
40471;SDS011;26174;42.908;23.800;2023-08-21T02:52:19;18.55;;;9.18;;
40471;SDS011;26174;42.908;23.800;2023-08-21T02:54:45;17.88;;;8.85;;
40471;SDS011;26174;42.908;23.800;2023-08-21T02:57:10;15.70;;;8.15;;
40471;SDS011;26174;42.908;23.800;2023-08-21T02:59:36;34.30;;;9.75;;
40471;SDS011;26174;42.908;23.800;2023-08-21T03:02:01;13.20;;;8.55;;
40471;SDS011;26174;42.908;23.800;2023-08-21T03:04:27;17.80;;;8.95;;
40471;SDS011;26174;42.908;23.800;2023-08-21T03:06:52;24.48;;;9.05;;
40471;SDS011;26174;42.908;23.800;2023-08-21T03:09:18;18.85;;;8.15;;
40471;SDS011;26174;42.908;23.800;2023-08-21T03:11:43;12.80;;;8.02;;
40471;SDS011;26174;42.908;23.800;2023-08-21T03:14:09;32.75;;;9.50;;
40471;SDS011;26174;42.908;23.800;2023-08-21T03:16:34;11.65;;;8.05;;
40471;SDS011;26174;42.908;23.800;2023-08-21T03:19:00;14.93;;;8.05;;
40471;SDS011;26174;42.908;23.800;2023-08-21T03:21:26;16.80;;;9.02;;
40471;SDS011;26174;42.908;23.800;2023-08-21T03:23:56;20.20;;;8.75;;
40471;SDS011;26174;42.908;23.800;2023-08-21T03:26:23;17.45;;;9.00;;
40471;SDS011;26174;42.908;23.800;2023-08-21T03:28:48;27.45;;;9.25;;
40471;SDS011;26174;42.908;23.800;2023-08-21T03:31:14;17.63;;;8.70;;
40471;SDS011;26174;42.908;23.800;2023-08-21T03:33:40;14.25;;;8.55;;
40471;SDS011;26174;42.908;23.800;2023-08-21T03:36:06;17.98;;;8.55;;
40471;SDS011;26174;42.908;23.800;2023-08-21T03:38:31;25.02;;;9.07;;
40471;SDS011;26174;42.908;23.800;2023-08-21T03:40:57;18.88;;;8.90;;
40471;SDS011;26174;42.908;23.800;2023-08-21T03:43:23;24.67;;;10.07;;
40471;SDS011;26174;42.908;23.800;2023-08-21T03:45:49;15.73;;;9.20;;
40471;SDS011;26174;42.908;23.800;2023-08-21T03:48:14;35.60;;;9.70;;
40471;SDS011;26174;42.908;23.800;2023-08-21T03:50:40;37.63;;;10.20;;
40471;SDS011;26174;42.908;23.800;2023-08-21T03:53:05;26.02;;;9.60;;
40471;SDS011;26174;42.908;23.800;2023-08-21T03:55:31;32.22;;;10.27;;
40471;SDS011;26174;42.908;23.800;2023-08-21T03:57:57;23.50;;;8.88;;
40471;SDS011;26174;42.908;23.800;2023-08-21T04:00:22;26.33;;;11.27;;
40471;SDS011;26174;42.908;23.800;2023-08-21T04:02:48;27.25;;;9.73;;
40471;SDS011;26174;42.908;23.800;2023-08-21T04:05:13;31.98;;;9.23;;
40471;SDS011;26174;42.908;23.800;2023-08-21T04:07:39;18.10;;;9.18;;
40471;SDS011;26174;42.908;23.800;2023-08-21T04:10:05;22.48;;;9.23;;
40471;SDS011;26174;42.908;23.800;2023-08-21T04:12:31;16.77;;;9.38;;
40471;SDS011;26174;42.908;23.800;2023-08-21T04:14:56;30.23;;;11.02;;
40471;SDS011;26174;42.908;23.800;2023-08-21T04:17:22;72.03;;;12.02;;
40471;SDS011;26174;42.908;23.800;2023-08-21T04:19:48;36.65;;;10.70;;
40471;SDS011;26174;42.908;23.800;2023-08-21T04:22:14;19.23;;;9.68;;
40471;SDS011;26174;42.908;23.800;2023-08-21T04:24:40;21.20;;;10.23;;
40471;SDS011;26174;42.908;23.800;2023-08-21T04:27:06;27.02;;;9.80;;
40471;SDS011;26174;42.908;23.800;2023-08-21T04:29:32;18.42;;;9.65;;
40471;SDS011;26174;42.908;23.800;2023-08-21T04:31:57;20.88;;;10.05;;
40471;SDS011;26174;42.908;23.800;2023-08-21T04:34:23;22.17;;;10.05;;
40471;SDS011;26174;42.908;23.800;2023-08-21T04:36:48;51.13;;;12.15;;
40471;SDS011;26174;42.908;23.800;2023-08-21T04:39:14;48.38;;;15.32;;
40471;SDS011;26174;42.908;23.800;2023-08-21T04:41:40;19.65;;;11.35;;
40471;SDS011;26174;42.908;23.800;2023-08-21T04:44:06;64.53;;;18.15;;
40471;SDS011;26174;42.908;23.800;2023-08-21T04:46:32;32.80;;;10.85;;
40471;SDS011;26174;42.908;23.800;2023-08-21T04:48:57;78.93;;;12.82;;
40471;SDS011;26174;42.908;23.800;2023-08-21T04:51:23;24.85;;;11.82;;
40471;SDS011;26174;42.908;23.800;2023-08-21T04:53:48;24.33;;;10.88;;
40471;SDS011;26174;42.908;23.800;2023-08-21T04:56:14;41.72;;;11.73;;
40471;SDS011;26174;42.908;23.800;2023-08-21T04:58:40;36.30;;;11.55;;
40471;SDS011;26174;42.908;23.800;2023-08-21T05:01:05;70.55;;;38.95;;
40471;SDS011;26174;42.908;23.800;2023-08-21T05:03:31;48.55;;;12.40;;
40471;SDS011;26174;42.908;23.800;2023-08-21T05:05:56;51.92;;;12.77;;
40471;SDS011;26174;42.908;23.800;2023-08-21T05:08:23;26.75;;;11.32;;
40471;SDS011;26174;42.908;23.800;2023-08-21T05:10:58;29.60;;;9.82;;
40471;SDS011;26174;42.908;23.800;2023-08-21T05:13:24;27.02;;;10.05;;
40471;SDS011;26174;42.908;23.800;2023-08-21T05:15:51;33.35;;;10.57;;
40471;SDS011;26174;42.908;23.800;2023-08-21T05:18:20;21.02;;;10.43;;
40471;SDS011;26174;42.908;23.800;2023-08-21T05:20:47;35.40;;;10.55;;
40471;SDS011;26174;42.908;23.800;2023-08-21T05:23:13;19.27;;;9.90;;
40471;SDS011;26174;42.908;23.800;2023-08-21T05:25:39;20.70;;;9.82;;
40471;SDS011;26174;42.908;23.800;2023-08-21T05:28:05;23.90;;;10.48;;
40471;SDS011;26174;42.908;23.800;2023-08-21T05:30:31;22.05;;;9.93;;
40471;SDS011;26174;42.908;23.800;2023-08-21T05:32:56;38.03;;;9.50;;
40471;SDS011;26174;42.908;23.800;2023-08-21T05:35:22;25.15;;;9.25;;
40471;SDS011;26174;42.908;23.800;2023-08-21T05:37:47;28.88;;;9.75;;
40471;SDS011;26174;42.908;23.800;2023-08-21T05:40:13;23.45;;;10.15;;
40471;SDS011;26174;42.908;23.800;2023-08-21T05:42:39;31.30;;;10.82;;
40471;SDS011;26174;42.908;23.800;2023-08-21T05:45:04;29.55;;;11.10;;
40471;SDS011;26174;42.908;23.800;2023-08-21T05:47:31;21.95;;;9.98;;
40471;SDS011;26174;42.908;23.800;2023-08-21T05:49:56;29.73;;;10.13;;
40471;SDS011;26174;42.908;23.800;2023-08-21T05:52:22;41.47;;;11.60;;
40471;SDS011;26174;42.908;23.800;2023-08-21T05:54:48;22.55;;;11.73;;
40471;SDS011;26174;42.908;23.800;2023-08-21T05:57:13;43.75;;;11.88;;
40471;SDS011;26174;42.908;23.800;2023-08-21T05:59:43;24.67;;;10.45;;
40471;SDS011;26174;42.908;23.800;2023-08-21T06:02:12;16.73;;;9.23;;
40471;SDS011;26174;42.908;23.800;2023-08-21T06:04:41;20.45;;;10.70;;
40471;SDS011;26174;42.908;23.800;2023-08-21T06:07:07;18.55;;;9.32;;
40471;SDS011;26174;42.908;23.800;2023-08-21T06:09:34;14.68;;;8.05;;
40471;SDS011;26174;42.908;23.800;2023-08-21T06:12:00;18.50;;;8.18;;
40471;SDS011;26174;42.908;23.800;2023-08-21T06:14:27;30.70;;;8.68;;
40471;SDS011;26174;42.908;23.800;2023-08-21T06:17:02;16.25;;;8.38;;
40471;SDS011;26174;42.908;23.800;2023-08-21T06:19:30;28.77;;;8.98;;
40471;SDS011;26174;42.908;23.800;2023-08-21T06:21:56;22.15;;;7.97;;
40471;SDS011;26174;42.908;23.800;2023-08-21T06:24:22;30.35;;;9.68;;
40471;SDS011;26174;42.908;23.800;2023-08-21T06:26:48;17.23;;;7.05;;
40471;SDS011;26174;42.908;23.800;2023-08-21T06:29:13;10.77;;;6.55;;
40471;SDS011;26174;42.908;23.800;2023-08-21T06:31:39;13.75;;;7.68;;
40471;SDS011;26174;42.908;23.800;2023-08-21T06:34:04;14.02;;;7.22;;
40471;SDS011;26174;42.908;23.800;2023-08-21T06:36:30;15.85;;;9.05;;
40471;SDS011;26174;42.908;23.800;2023-08-21T06:38:56;26.00;;;7.95;;
40471;SDS011;26174;42.908;23.800;2023-08-21T06:41:21;22.92;;;8.13;;
40471;SDS011;26174;42.908;23.800;2023-08-21T06:43:47;22.73;;;8.05;;
40471;SDS011;26174;42.908;23.800;2023-08-21T06:46:12;17.85;;;7.00;;
40471;SDS011;26174;42.908;23.800;2023-08-21T06:48:38;21.05;;;7.95;;
40471;SDS011;26174;42.908;23.800;2023-08-21T06:51:08;20.35;;;7.78;;
40471;SDS011;26174;42.908;23.800;2023-08-21T06:53:34;22.88;;;7.00;;
40471;SDS011;26174;42.908;23.800;2023-08-21T06:55:59;17.45;;;7.45;;
40471;SDS011;26174;42.908;23.800;2023-08-21T06:58:25;26.40;;;7.20;;
40471;SDS011;26174;42.908;23.800;2023-08-21T07:00:50;18.67;;;6.82;;
40471;SDS011;26174;42.908;23.800;2023-08-21T07:03:16;21.20;;;6.82;;
40471;SDS011;26174;42.908;23.800;2023-08-21T07:05:57;71.22;;;9.07;;
40471;SDS011;26174;42.908;23.800;2023-08-21T07:08:24;12.07;;;6.50;;
40471;SDS011;26174;42.908;23.800;2023-08-21T07:10:50;36.67;;;8.07;;
40471;SDS011;26174;42.908;23.800;2023-08-21T07:13:16;33.67;;;7.97;;
40471;SDS011;26174;42.908;23.800;2023-08-21T07:15:42;41.75;;;7.22;;
40471;SDS011;26174;42.908;23.800;2023-08-21T07:18:08;19.27;;;6.32;;
40471;SDS011;26174;42.908;23.800;2023-08-21T07:20:33;19.85;;;7.18;;
40471;SDS011;26174;42.908;23.800;2023-08-21T07:22:59;60.65;;;8.80;;
40471;SDS011;26174;42.908;23.800;2023-08-21T07:25:25;17.60;;;7.07;;
40471;SDS011;26174;42.908;23.800;2023-08-21T07:27:51;17.42;;;6.40;;
40471;SDS011;26174;42.908;23.800;2023-08-21T07:30:19;15.85;;;6.25;;
40471;SDS011;26174;42.908;23.800;2023-08-21T07:32:46;12.70;;;6.80;;
40471;SDS011;26174;42.908;23.800;2023-08-21T07:35:11;10.80;;;5.10;;
40471;SDS011;26174;42.908;23.800;2023-08-21T07:37:37;18.08;;;6.20;;
40471;SDS011;26174;42.908;23.800;2023-08-21T07:40:04;24.83;;;6.28;;
40471;SDS011;26174;42.908;23.800;2023-08-21T07:42:30;9.02;;;6.03;;
40471;SDS011;26174;42.908;23.800;2023-08-21T07:44:55;10.45;;;5.72;;
40471;SDS011;26174;42.908;23.800;2023-08-21T07:47:27;20.48;;;6.65;;
40471;SDS011;26174;42.908;23.800;2023-08-21T07:49:53;31.83;;;6.70;;
40471;SDS011;26174;42.908;23.800;2023-08-21T07:52:19;24.38;;;7.10;;
40471;SDS011;26174;42.908;23.800;2023-08-21T07:54:45;18.52;;;6.50;;
40471;SDS011;26174;42.908;23.800;2023-08-21T07:57:10;19.95;;;6.50;;
40471;SDS011;26174;42.908;23.800;2023-08-21T07:59:36;10.10;;;5.35;;
40471;SDS011;26174;42.908;23.800;2023-08-21T08:02:02;11.35;;;6.75;;
40471;SDS011;26174;42.908;23.800;2023-08-21T08:04:28;22.48;;;7.10;;
40471;SDS011;26174;42.908;23.800;2023-08-21T08:06:53;15.73;;;6.45;;
40471;SDS011;26174;42.908;23.800;2023-08-21T08:09:19;15.63;;;6.38;;
40471;SDS011;26174;42.908;23.800;2023-08-21T08:11:44;45.05;;;10.98;;
40471;SDS011;26174;42.908;23.800;2023-08-21T08:14:10;19.60;;;6.20;;
40471;SDS011;26174;42.908;23.800;2023-08-21T08:16:35;23.65;;;7.30;;
40471;SDS011;26174;42.908;23.800;2023-08-21T08:19:01;15.63;;;6.38;;
40471;SDS011;26174;42.908;23.800;2023-08-21T08:21:27;16.05;;;5.88;;
40471;SDS011;26174;42.908;23.800;2023-08-21T08:23:52;10.57;;;5.63;;
40471;SDS011;26174;42.908;23.800;2023-08-21T08:26:18;9.50;;;6.50;;
40471;SDS011;26174;42.908;23.800;2023-08-21T08:28:43;22.05;;;6.55;;
40471;SDS011;26174;42.908;23.800;2023-08-21T08:31:16;9.15;;;5.43;;
40471;SDS011;26174;42.908;23.800;2023-08-21T08:33:42;20.55;;;6.38;;
40471;SDS011;26174;42.908;23.800;2023-08-21T08:36:07;9.77;;;5.85;;
40471;SDS011;26174;42.908;23.800;2023-08-21T08:38:33;8.23;;;5.82;;
40471;SDS011;26174;42.908;23.800;2023-08-21T08:40:59;7.72;;;5.38;;
40471;SDS011;26174;42.908;23.800;2023-08-21T08:43:27;15.18;;;6.20;;
40471;SDS011;26174;42.908;23.800;2023-08-21T08:45:53;17.15;;;5.90;;
40471;SDS011;26174;42.908;23.800;2023-08-21T08:48:20;6.90;;;5.03;;
40471;SDS011;26174;42.908;23.800;2023-08-21T08:50:46;20.38;;;5.93;;
40471;SDS011;26174;42.908;23.800;2023-08-21T08:53:12;19.38;;;5.13;;
40471;SDS011;26174;42.908;23.800;2023-08-21T08:55:38;18.98;;;6.20;;
40471;SDS011;26174;42.908;23.800;2023-08-21T08:58:04;8.18;;;5.25;;
40471;SDS011;26174;42.908;23.800;2023-08-21T09:00:30;8.15;;;5.78;;
40471;SDS011;26174;42.908;23.800;2023-08-21T09:02:56;11.90;;;5.90;;
40471;SDS011;26174;42.908;23.800;2023-08-21T09:05:23;10.55;;;5.70;;
40471;SDS011;26174;42.908;23.800;2023-08-21T09:08:01;17.10;;;6.28;;
40471;SDS011;26174;42.908;23.800;2023-08-21T09:10:33;12.90;;;4.90;;
40471;SDS011;26174;42.908;23.800;2023-08-21T09:12:59;7.15;;;5.38;;
40471;SDS011;26174;42.908;23.800;2023-08-21T09:15:30;8.63;;;4.75;;
40471;SDS011;26174;42.908;23.800;2023-08-21T09:17:55;15.73;;;5.13;;
40471;SDS011;26174;42.908;23.800;2023-08-21T09:20:21;6.35;;;4.57;;
40471;SDS011;26174;42.908;23.800;2023-08-21T09:22:53;9.65;;;5.10;;
40471;SDS011;26174;42.908;23.800;2023-08-21T09:25:20;16.00;;;5.00;;
40471;SDS011;26174;42.908;23.800;2023-08-21T09:27:46;8.90;;;5.00;;
40471;SDS011;26174;42.908;23.800;2023-08-21T09:30:13;6.03;;;4.85;;
40471;SDS011;26174;42.908;23.800;2023-08-21T09:35:29;29.90;;;6.22;;
40471;SDS011;26174;42.908;23.800;2023-08-21T09:37:57;11.95;;;5.30;;
40471;SDS011;26174;42.908;23.800;2023-08-21T09:40:24;14.30;;;5.40;;
40471;SDS011;26174;42.908;23.800;2023-08-21T09:42:53;26.15;;;7.30;;
40471;SDS011;26174;42.908;23.800;2023-08-21T09:45:20;13.73;;;5.50;;
40471;SDS011;26174;42.908;23.800;2023-08-21T09:47:47;7.28;;;4.43;;
40471;SDS011;26174;42.908;23.800;2023-08-21T09:50:12;7.90;;;4.45;;
40471;SDS011;26174;42.908;23.800;2023-08-21T09:52:38;6.63;;;4.55;;
40471;SDS011;26174;42.908;23.800;2023-08-21T09:55:04;10.15;;;5.13;;
40471;SDS011;26174;42.908;23.800;2023-08-21T09:57:30;10.57;;;4.60;;
40471;SDS011;26174;42.908;23.800;2023-08-21T09:59:57;8.07;;;4.85;;
40471;SDS011;26174;42.908;23.800;2023-08-21T10:02:23;11.88;;;4.82;;
40471;SDS011;26174;42.908;23.800;2023-08-21T10:04:49;6.70;;;4.30;;
40471;SDS011;26174;42.908;23.800;2023-08-21T10:07:20;6.00;;;4.80;;
40471;SDS011;26174;42.908;23.800;2023-08-21T10:09:47;8.60;;;5.22;;
40471;SDS011;26174;42.908;23.800;2023-08-21T10:12:14;5.82;;;4.65;;
40471;SDS011;26174;42.908;23.800;2023-08-21T10:14:41;7.60;;;5.00;;
40471;SDS011;26174;42.908;23.800;2023-08-21T10:17:07;7.90;;;5.35;;
40471;SDS011;26174;42.908;23.800;2023-08-21T10:19:35;9.23;;;4.72;;
40471;SDS011;26174;42.908;23.800;2023-08-21T10:22:01;5.63;;;4.80;;
40471;SDS011;26174;42.908;23.800;2023-08-21T10:24:37;14.00;;;4.95;;
40471;SDS011;26174;42.908;23.800;2023-08-21T10:27:03;6.05;;;4.32;;
40471;SDS011;26174;42.908;23.800;2023-08-21T10:29:28;8.40;;;4.60;;
40471;SDS011;26174;42.908;23.800;2023-08-21T10:32:02;4.47;;;4.03;;
40471;SDS011;26174;42.908;23.800;2023-08-21T10:34:33;7.20;;;4.60;;
40471;SDS011;26174;42.908;23.800;2023-08-21T10:37:09;9.88;;;4.30;;
40471;SDS011;26174;42.908;23.800;2023-08-21T10:39:37;8.75;;;5.32;;
40471;SDS011;26174;42.908;23.800;2023-08-21T10:42:05;7.30;;;4.50;;
40471;SDS011;26174;42.908;23.800;2023-08-21T10:47:14;6.57;;;5.03;;
40471;SDS011;26174;42.908;23.800;2023-08-21T10:49:46;10.55;;;6.13;;
40471;SDS011;26174;42.908;23.800;2023-08-21T10:52:12;8.10;;;5.80;;
40471;SDS011;26174;42.908;23.800;2023-08-21T10:54:44;8.27;;;6.43;;
40471;SDS011;26174;42.908;23.800;2023-08-21T10:57:14;10.50;;;5.15;;
40471;SDS011;26174;42.908;23.800;2023-08-21T10:59:48;9.00;;;5.80;;
40471;SDS011;26174;42.908;23.800;2023-08-21T11:02:25;9.63;;;5.47;;
40471;SDS011;26174;42.908;23.800;2023-08-21T11:04:54;17.60;;;6.07;;
40471;SDS011;26174;42.908;23.800;2023-08-21T11:07:20;21.63;;;5.70;;
40471;SDS011;26174;42.908;23.800;2023-08-21T11:09:46;7.00;;;5.00;;
40471;SDS011;26174;42.908;23.800;2023-08-21T11:12:16;30.80;;;6.20;;
40471;SDS011;26174;42.908;23.800;2023-08-21T11:14:43;21.48;;;5.50;;
40471;SDS011;26174;42.908;23.800;2023-08-21T11:17:09;7.68;;;4.82;;
40471;SDS011;26174;42.908;23.800;2023-08-21T11:19:35;16.42;;;4.88;;
40471;SDS011;26174;42.908;23.800;2023-08-21T11:22:01;6.32;;;4.40;;
40471;SDS011;26174;42.908;23.800;2023-08-21T11:27:02;8.50;;;4.38;;
40471;SDS011;26174;42.908;23.800;2023-08-21T11:29:32;13.30;;;4.47;;
40471;SDS011;26174;42.908;23.800;2023-08-21T11:32:12;7.65;;;4.45;;
40471;SDS011;26174;42.908;23.800;2023-08-21T11:34:37;13.32;;;5.13;;
40471;SDS011;26174;42.908;23.800;2023-08-21T11:37:04;11.15;;;4.50;;
40471;SDS011;26174;42.908;23.800;2023-08-21T11:39:40;8.80;;;4.40;;
40471;SDS011;26174;42.908;23.800;2023-08-21T11:42:10;6.15;;;3.85;;
40471;SDS011;26174;42.908;23.800;2023-08-21T11:44:41;7.05;;;4.55;;
40471;SDS011;26174;42.908;23.800;2023-08-21T11:47:15;6.38;;;4.93;;
40471;SDS011;26174;42.908;23.800;2023-08-21T11:49:42;6.95;;;4.38;;
40471;SDS011;26174;42.908;23.800;2023-08-21T11:52:08;5.88;;;4.45;;
40471;SDS011;26174;42.908;23.800;2023-08-21T11:54:37;6.30;;;4.43;;
40471;SDS011;26174;42.908;23.800;2023-08-21T11:57:11;32.55;;;4.88;;
40471;SDS011;26174;42.908;23.800;2023-08-21T11:59:40;5.53;;;4.35;;
40471;SDS011;26174;42.908;23.800;2023-08-21T12:02:21;11.70;;;4.40;;
40471;SDS011;26174;42.908;23.800;2023-08-21T12:04:54;11.15;;;5.68;;
40471;SDS011;26174;42.908;23.800;2023-08-21T12:07:25;10.43;;;4.80;;
40471;SDS011;26174;42.908;23.800;2023-08-21T12:09:51;12.00;;;4.22;;
40471;SDS011;26174;42.908;23.800;2023-08-21T12:12:17;9.68;;;5.15;;
40471;SDS011;26174;42.908;23.800;2023-08-21T12:14:43;8.25;;;4.20;;
40471;SDS011;26174;42.908;23.800;2023-08-21T12:17:08;9.75;;;4.65;;
40471;SDS011;26174;42.908;23.800;2023-08-21T12:19:37;10.55;;;5.25;;
40471;SDS011;26174;42.908;23.800;2023-08-21T12:22:07;10.55;;;4.80;;
40471;SDS011;26174;42.908;23.800;2023-08-21T12:24:35;10.07;;;4.68;;
40471;SDS011;26174;42.908;23.800;2023-08-21T12:27:04;7.45;;;4.20;;
40471;SDS011;26174;42.908;23.800;2023-08-21T12:29:31;6.88;;;4.78;;
40471;SDS011;26174;42.908;23.800;2023-08-21T12:31:56;6.53;;;4.30;;
40471;SDS011;26174;42.908;23.800;2023-08-21T12:34:22;10.82;;;4.85;;
40471;SDS011;26174;42.908;23.800;2023-08-21T12:36:49;7.20;;;4.47;;
40471;SDS011;26174;42.908;23.800;2023-08-21T12:39:15;9.25;;;4.10;;
40471;SDS011;26174;42.908;23.800;2023-08-21T12:41:41;4.25;;;3.85;;
40471;SDS011;26174;42.908;23.800;2023-08-21T12:44:08;11.00;;;4.75;;
40471;SDS011;26174;42.908;23.800;2023-08-21T12:46:34;5.70;;;4.38;;
40471;SDS011;26174;42.908;23.800;2023-08-21T12:49:00;8.73;;;5.00;;
40471;SDS011;26174;42.908;23.800;2023-08-21T12:51:27;5.57;;;4.40;;
40471;SDS011;26174;42.908;23.800;2023-08-21T12:53:53;12.02;;;6.15;;
40471;SDS011;26174;42.908;23.800;2023-08-21T12:56:19;6.65;;;4.72;;
40471;SDS011;26174;42.908;23.800;2023-08-21T12:58:48;9.18;;;4.57;;
40471;SDS011;26174;42.908;23.800;2023-08-21T13:01:14;15.70;;;5.20;;
40471;SDS011;26174;42.908;23.800;2023-08-21T13:03:43;10.80;;;5.13;;
40471;SDS011;26174;42.908;23.800;2023-08-21T13:06:12;5.00;;;4.35;;
40471;SDS011;26174;42.908;23.800;2023-08-21T13:08:38;7.90;;;5.88;;
40471;SDS011;26174;42.908;23.800;2023-08-21T13:11:03;5.07;;;4.50;;
40471;SDS011;26174;42.908;23.800;2023-08-21T13:13:30;5.75;;;4.50;;
40471;SDS011;26174;42.908;23.800;2023-08-21T13:15:59;5.57;;;4.80;;
40471;SDS011;26174;42.908;23.800;2023-08-21T13:18:25;11.10;;;4.90;;
40471;SDS011;26174;42.908;23.800;2023-08-21T13:20:51;7.60;;;4.28;;
40471;SDS011;26174;42.908;23.800;2023-08-21T13:23:17;8.57;;;4.68;;
40471;SDS011;26174;42.908;23.800;2023-08-21T13:25:42;16.80;;;5.50;;
40471;SDS011;26174;42.908;23.800;2023-08-21T13:28:08;10.07;;;4.65;;
40471;SDS011;26174;42.908;23.800;2023-08-21T13:30:33;12.10;;;6.72;;
40471;SDS011;26174;42.908;23.800;2023-08-21T13:32:59;11.70;;;4.97;;
40471;SDS011;26174;42.908;23.800;2023-08-21T13:35:25;14.65;;;5.65;;
40471;SDS011;26174;42.908;23.800;2023-08-21T13:37:50;10.20;;;5.50;;
40471;SDS011;26174;42.908;23.800;2023-08-21T13:40:16;8.73;;;5.35;;
40471;SDS011;26174;42.908;23.800;2023-08-21T13:42:42;13.80;;;6.70;;
40471;SDS011;26174;42.908;23.800;2023-08-21T13:45:13;13.60;;;5.97;;
40471;SDS011;26174;42.908;23.800;2023-08-21T13:47:40;15.05;;;5.90;;
40471;SDS011;26174;42.908;23.800;2023-08-21T13:50:18;8.20;;;5.28;;
40471;SDS011;26174;42.908;23.800;2023-08-21T13:52:45;16.15;;;6.53;;
40471;SDS011;26174;42.908;23.800;2023-08-21T13:55:12;6.75;;;5.38;;
40471;SDS011;26174;42.908;23.800;2023-08-21T13:57:39;12.07;;;6.00;;
40471;SDS011;26174;42.908;23.800;2023-08-21T14:00:06;12.98;;;5.40;;
40471;SDS011;26174;42.908;23.800;2023-08-21T14:02:36;29.92;;;20.55;;
40471;SDS011;26174;42.908;23.800;2023-08-21T14:05:02;7.75;;;5.18;;
40471;SDS011;26174;42.908;23.800;2023-08-21T14:07:32;8.05;;;5.32;;
40471;SDS011;26174;42.908;23.800;2023-08-21T14:09:58;13.02;;;5.95;;
40471;SDS011;26174;42.908;23.800;2023-08-21T14:12:24;10.15;;;5.20;;
40471;SDS011;26174;42.908;23.800;2023-08-21T14:14:50;9.02;;;5.18;;
40471;SDS011;26174;42.908;23.800;2023-08-21T14:17:15;13.98;;;5.70;;
40471;SDS011;26174;42.908;23.800;2023-08-21T14:19:41;24.48;;;5.40;;
40471;SDS011;26174;42.908;23.800;2023-08-21T14:22:07;18.98;;;5.97;;
40471;SDS011;26174;42.908;23.800;2023-08-21T14:24:32;9.35;;;5.03;;
40471;SDS011;26174;42.908;23.800;2023-08-21T14:26:58;6.32;;;5.03;;
40471;SDS011;26174;42.908;23.800;2023-08-21T14:29:24;5.82;;;4.72;;
40471;SDS011;26174;42.908;23.800;2023-08-21T14:31:50;6.65;;;5.07;;